sensor_id;sensor_type;location;lat;lon;timestamp;P1;durP1;ratioP1;P2;durP2;ratioP2
9160;SDS011;4615;51.340;8.288;2022-11-18T00:00:15;8.40;;;5.80;;
9160;SDS011;4615;51.340;8.288;2022-11-18T00:02:42;9.53;;;5.80;;
9160;SDS011;4615;51.340;8.288;2022-11-18T00:05:08;7.60;;;6.53;;
9160;SDS011;4615;51.340;8.288;2022-11-18T00:07:35;9.30;;;7.18;;
9160;SDS011;4615;51.340;8.288;2022-11-18T00:10:01;9.90;;;8.30;;
9160;SDS011;4615;51.340;8.288;2022-11-18T00:12:29;9.88;;;8.25;;
9160;SDS011;4615;51.340;8.288;2022-11-18T00:15:13;9.55;;;8.18;;
9160;SDS011;4615;51.340;8.288;2022-11-18T00:17:39;8.18;;;6.63;;
9160;SDS011;4615;51.340;8.288;2022-11-18T00:20:06;7.35;;;5.50;;
9160;SDS011;4615;51.340;8.288;2022-11-18T00:22:32;6.75;;;5.72;;
9160;SDS011;4615;51.340;8.288;2022-11-18T00:24:58;6.30;;;5.33;;
9160;SDS011;4615;51.340;8.288;2022-11-18T00:27:29;8.15;;;6.25;;
9160;SDS011;4615;51.340;8.288;2022-11-18T00:29:56;8.85;;;5.43;;
9160;SDS011;4615;51.340;8.288;2022-11-18T00:32:22;6.47;;;4.80;;
9160;SDS011;4615;51.340;8.288;2022-11-18T00:34:49;6.00;;;4.63;;
9160;SDS011;4615;51.340;8.288;2022-11-18T00:37:15;6.40;;;4.10;;
9160;SDS011;4615;51.340;8.288;2022-11-18T00:39:41;4.97;;;3.60;;
9160;SDS011;4615;51.340;8.288;2022-11-18T00:42:08;6.17;;;4.40;;
9160;SDS011;4615;51.340;8.288;2022-11-18T00:44:53;6.68;;;4.70;;
9160;SDS011;4615;51.340;8.288;2022-11-18T00:47:19;7.88;;;6.22;;
9160;SDS011;4615;51.340;8.288;2022-11-18T00:49:46;7.28;;;5.32;;
9160;SDS011;4615;51.340;8.288;2022-11-18T00:52:12;7.88;;;5.60;;
9160;SDS011;4615;51.340;8.288;2022-11-18T00:54:39;7.57;;;5.10;;
9160;SDS011;4615;51.340;8.288;2022-11-18T00:57:05;6.28;;;5.15;;
9160;SDS011;4615;51.340;8.288;2022-11-18T00:59:31;7.05;;;5.00;;
9160;SDS011;4615;51.340;8.288;2022-11-18T01:01:59;7.72;;;5.80;;
9160;SDS011;4615;51.340;8.288;2022-11-18T01:04:26;8.20;;;7.03;;
9160;SDS011;4615;51.340;8.288;2022-11-18T01:06:52;10.25;;;9.18;;
9160;SDS011;4615;51.340;8.288;2022-11-18T01:09:18;8.65;;;7.57;;
9160;SDS011;4615;51.340;8.288;2022-11-18T01:11:45;8.95;;;7.93;;
9160;SDS011;4615;51.340;8.288;2022-11-18T01:14:28;10.57;;;9.38;;
9160;SDS011;4615;51.340;8.288;2022-11-18T01:16:55;9.85;;;7.80;;
9160;SDS011;4615;51.340;8.288;2022-11-18T01:19:23;5.70;;;4.60;;
9160;SDS011;4615;51.340;8.288;2022-11-18T01:21:50;5.53;;;4.30;;
9160;SDS011;4615;51.340;8.288;2022-11-18T01:24:16;4.50;;;3.47;;
9160;SDS011;4615;51.340;8.288;2022-11-18T01:26:42;3.08;;;2.50;;
9160;SDS011;4615;51.340;8.288;2022-11-18T01:29:09;5.93;;;4.03;;
9160;SDS011;4615;51.340;8.288;2022-11-18T01:31:36;6.00;;;4.40;;
9160;SDS011;4615;51.340;8.288;2022-11-18T01:34:02;4.43;;;3.63;;
9160;SDS011;4615;51.340;8.288;2022-11-18T01:36:30;5.25;;;4.70;;
9160;SDS011;4615;51.340;8.288;2022-11-18T01:38:56;6.57;;;5.55;;
9160;SDS011;4615;51.340;8.288;2022-11-18T01:41:23;6.13;;;5.53;;
9160;SDS011;4615;51.340;8.288;2022-11-18T01:43:51;6.70;;;5.97;;
9160;SDS011;4615;51.340;8.288;2022-11-18T01:46:18;8.52;;;5.82;;
9160;SDS011;4615;51.340;8.288;2022-11-18T01:48:46;6.22;;;5.00;;
9160;SDS011;4615;51.340;8.288;2022-11-18T01:51:14;5.80;;;5.15;;
9160;SDS011;4615;51.340;8.288;2022-11-18T01:53:44;4.93;;;4.13;;
9160;SDS011;4615;51.340;8.288;2022-11-18T01:56:12;4.18;;;3.78;;
9160;SDS011;4615;51.340;8.288;2022-11-18T01:58:40;6.13;;;5.18;;
9160;SDS011;4615;51.340;8.288;2022-11-18T02:01:08;7.93;;;7.13;;
9160;SDS011;4615;51.340;8.288;2022-11-18T02:03:35;8.23;;;7.07;;
9160;SDS011;4615;51.340;8.288;2022-11-18T02:06:02;8.18;;;7.32;;
9160;SDS011;4615;51.340;8.288;2022-11-18T02:08:30;6.80;;;6.10;;
9160;SDS011;4615;51.340;8.288;2022-11-18T02:10:58;7.70;;;6.00;;
9160;SDS011;4615;51.340;8.288;2022-11-18T02:13:25;7.68;;;5.55;;
9160;SDS011;4615;51.340;8.288;2022-11-18T02:15:52;13.18;;;11.85;;
9160;SDS011;4615;51.340;8.288;2022-11-18T02:18:23;7.82;;;7.13;;
9160;SDS011;4615;51.340;8.288;2022-11-18T02:20:54;6.78;;;6.18;;
9160;SDS011;4615;51.340;8.288;2022-11-18T02:28:57;3.10;;;2.40;;
9160;SDS011;4615;51.340;8.288;2022-11-18T02:31:26;2.60;;;2.28;;
9160;SDS011;4615;51.340;8.288;2022-11-18T02:33:56;4.35;;;2.97;;
9160;SDS011;4615;51.340;8.288;2022-11-18T02:36:26;4.33;;;3.50;;
9160;SDS011;4615;51.340;8.288;2022-11-18T02:38:54;6.63;;;5.28;;
9160;SDS011;4615;51.340;8.288;2022-11-18T02:41:24;6.30;;;3.90;;
9160;SDS011;4615;51.340;8.288;2022-11-18T02:43:51;6.97;;;4.85;;
9160;SDS011;4615;51.340;8.288;2022-11-18T02:46:23;8.32;;;7.35;;
9160;SDS011;4615;51.340;8.288;2022-11-18T02:48:50;6.30;;;5.70;;
9160;SDS011;4615;51.340;8.288;2022-11-18T02:51:18;8.10;;;7.30;;
9160;SDS011;4615;51.340;8.288;2022-11-18T02:53:47;10.32;;;9.23;;
9160;SDS011;4615;51.340;8.288;2022-11-18T02:56:14;5.73;;;4.23;;
9160;SDS011;4615;51.340;8.288;2022-11-18T02:58:41;3.70;;;3.03;;
9160;SDS011;4615;51.340;8.288;2022-11-18T03:01:13;4.60;;;3.30;;
9160;SDS011;4615;51.340;8.288;2022-11-18T03:03:43;3.80;;;3.00;;
9160;SDS011;4615;51.340;8.288;2022-11-18T03:06:10;4.13;;;3.10;;
9160;SDS011;4615;51.340;8.288;2022-11-18T03:08:39;5.03;;;3.20;;
9160;SDS011;4615;51.340;8.288;2022-11-18T03:11:10;5.30;;;3.70;;
9160;SDS011;4615;51.340;8.288;2022-11-18T03:13:40;3.83;;;3.30;;
9160;SDS011;4615;51.340;8.288;2022-11-18T03:16:09;4.88;;;3.90;;
9160;SDS011;4615;51.340;8.288;2022-11-18T03:18:38;4.78;;;4.28;;
9160;SDS011;4615;51.340;8.288;2022-11-18T03:21:10;4.47;;;4.00;;
9160;SDS011;4615;51.340;8.288;2022-11-18T03:23:39;4.60;;;3.42;;
9160;SDS011;4615;51.340;8.288;2022-11-18T03:26:08;4.57;;;3.45;;
9160;SDS011;4615;51.340;8.288;2022-11-18T03:28:35;4.20;;;3.20;;
9160;SDS011;4615;51.340;8.288;2022-11-18T03:31:07;5.57;;;3.47;;
9160;SDS011;4615;51.340;8.288;2022-11-18T03:33:36;4.55;;;3.83;;
9160;SDS011;4615;51.340;8.288;2022-11-18T03:36:05;5.13;;;3.63;;
9160;SDS011;4615;51.340;8.288;2022-11-18T03:38:35;5.17;;;3.87;;
9160;SDS011;4615;51.340;8.288;2022-11-18T03:41:04;6.25;;;3.50;;
9160;SDS011;4615;51.340;8.288;2022-11-18T03:43:33;4.13;;;3.45;;
9160;SDS011;4615;51.340;8.288;2022-11-18T03:46:01;4.47;;;3.65;;
9160;SDS011;4615;51.340;8.288;2022-11-18T03:48:30;4.55;;;2.90;;
9160;SDS011;4615;51.340;8.288;2022-11-18T03:50:58;4.22;;;3.60;;
9160;SDS011;4615;51.340;8.288;2022-11-18T03:53:27;4.37;;;3.97;;
9160;SDS011;4615;51.340;8.288;2022-11-18T03:55:57;5.45;;;4.55;;
9160;SDS011;4615;51.340;8.288;2022-11-18T03:58:28;6.05;;;4.90;;
9160;SDS011;4615;51.340;8.288;2022-11-18T04:00:55;6.15;;;5.10;;
9160;SDS011;4615;51.340;8.288;2022-11-18T04:03:24;5.70;;;5.17;;
9160;SDS011;4615;51.340;8.288;2022-11-18T04:05:51;7.20;;;6.40;;
9160;SDS011;4615;51.340;8.288;2022-11-18T04:08:19;9.10;;;8.20;;
9160;SDS011;4615;51.340;8.288;2022-11-18T04:10:47;10.32;;;9.23;;
9160;SDS011;4615;51.340;8.288;2022-11-18T04:13:16;9.60;;;8.63;;
9160;SDS011;4615;51.340;8.288;2022-11-18T04:15:44;9.30;;;8.52;;
9160;SDS011;4615;51.340;8.288;2022-11-18T04:18:11;7.97;;;7.25;;
9160;SDS011;4615;51.340;8.288;2022-11-18T04:20:37;7.30;;;6.50;;
9160;SDS011;4615;51.340;8.288;2022-11-18T04:23:04;6.60;;;5.90;;
9160;SDS011;4615;51.340;8.288;2022-11-18T04:25:31;6.25;;;5.60;;
9160;SDS011;4615;51.340;8.288;2022-11-18T04:27:57;6.63;;;4.50;;
9160;SDS011;4615;51.340;8.288;2022-11-18T04:30:25;5.35;;;4.38;;
9160;SDS011;4615;51.340;8.288;2022-11-18T04:32:52;4.63;;;4.00;;
9160;SDS011;4615;51.340;8.288;2022-11-18T04:35:18;3.10;;;2.80;;
9160;SDS011;4615;51.340;8.288;2022-11-18T04:37:44;3.50;;;2.60;;
9160;SDS011;4615;51.340;8.288;2022-11-18T04:40:11;3.88;;;2.60;;
9160;SDS011;4615;51.340;8.288;2022-11-18T04:42:37;3.63;;;2.78;;
9160;SDS011;4615;51.340;8.288;2022-11-18T04:45:04;2.88;;;2.50;;
9160;SDS011;4615;51.340;8.288;2022-11-18T04:47:33;3.88;;;3.03;;
9160;SDS011;4615;51.340;8.288;2022-11-18T04:49:59;4.03;;;2.92;;
9160;SDS011;4615;51.340;8.288;2022-11-18T04:52:25;3.20;;;2.40;;
9160;SDS011;4615;51.340;8.288;2022-11-18T04:54:52;3.35;;;2.63;;
9160;SDS011;4615;51.340;8.288;2022-11-18T04:57:18;6.33;;;4.80;;
9160;SDS011;4615;51.340;8.288;2022-11-18T04:59:45;4.07;;;3.67;;
9160;SDS011;4615;51.340;8.288;2022-11-18T05:02:11;4.38;;;3.97;;
9160;SDS011;4615;51.340;8.288;2022-11-18T05:04:39;4.82;;;4.32;;
9160;SDS011;4615;51.340;8.288;2022-11-18T05:07:05;6.50;;;4.10;;
9160;SDS011;4615;51.340;8.288;2022-11-18T05:09:32;5.03;;;4.40;;
9160;SDS011;4615;51.340;8.288;2022-11-18T05:11:58;6.40;;;4.43;;
9160;SDS011;4615;51.340;8.288;2022-11-18T05:14:42;5.13;;;3.78;;
9160;SDS011;4615;51.340;8.288;2022-11-18T05:17:09;3.03;;;2.20;;
9160;SDS011;4615;51.340;8.288;2022-11-18T05:19:36;2.53;;;1.93;;
9160;SDS011;4615;51.340;8.288;2022-11-18T05:22:04;2.40;;;1.92;;
9160;SDS011;4615;51.340;8.288;2022-11-18T05:24:30;3.83;;;2.42;;
9160;SDS011;4615;51.340;8.288;2022-11-18T05:26:56;2.80;;;2.30;;
9160;SDS011;4615;51.340;8.288;2022-11-18T05:29:23;3.85;;;2.60;;
9160;SDS011;4615;51.340;8.288;2022-11-18T05:31:49;3.95;;;2.30;;
9160;SDS011;4615;51.340;8.288;2022-11-18T05:34:16;2.73;;;2.40;;
9160;SDS011;4615;51.340;8.288;2022-11-18T05:36:43;3.13;;;2.70;;
9160;SDS011;4615;51.340;8.288;2022-11-18T05:39:10;4.17;;;2.60;;
9160;SDS011;4615;51.340;8.288;2022-11-18T05:41:37;2.63;;;2.40;;
9160;SDS011;4615;51.340;8.288;2022-11-18T05:44:21;2.90;;;2.40;;
9160;SDS011;4615;51.340;8.288;2022-11-18T05:46:47;3.85;;;2.40;;
9160;SDS011;4615;51.340;8.288;2022-11-18T05:49:14;3.45;;;2.20;;
9160;SDS011;4615;51.340;8.288;2022-11-18T05:51:40;3.00;;;2.20;;
9160;SDS011;4615;51.340;8.288;2022-11-18T05:54:07;3.13;;;2.67;;
9160;SDS011;4615;51.340;8.288;2022-11-18T05:56:36;3.13;;;2.60;;
9160;SDS011;4615;51.340;8.288;2022-11-18T05:59:03;3.67;;;2.40;;
9160;SDS011;4615;51.340;8.288;2022-11-18T06:01:30;4.30;;;2.67;;
9160;SDS011;4615;51.340;8.288;2022-11-18T06:03:57;3.10;;;2.40;;
9160;SDS011;4615;51.340;8.288;2022-11-18T06:06:25;2.85;;;2.35;;
9160;SDS011;4615;51.340;8.288;2022-11-18T06:08:53;4.35;;;2.58;;
9160;SDS011;4615;51.340;8.288;2022-11-18T06:11:21;3.57;;;3.23;;
9160;SDS011;4615;51.340;8.288;2022-11-18T06:13:50;3.92;;;3.30;;
9160;SDS011;4615;51.340;8.288;2022-11-18T06:16:17;3.83;;;3.00;;
9160;SDS011;4615;51.340;8.288;2022-11-18T06:18:45;3.20;;;2.60;;
9160;SDS011;4615;51.340;8.288;2022-11-18T06:21:12;4.07;;;3.00;;
9160;SDS011;4615;51.340;8.288;2022-11-18T06:23:38;3.65;;;3.17;;
9160;SDS011;4615;51.340;8.288;2022-11-18T06:26:05;5.10;;;4.28;;
9160;SDS011;4615;51.340;8.288;2022-11-18T06:28:33;4.00;;;3.70;;
9160;SDS011;4615;51.340;8.288;2022-11-18T06:31:01;3.17;;;2.80;;
9160;SDS011;4615;51.340;8.288;2022-11-18T06:33:27;4.78;;;3.13;;
9160;SDS011;4615;51.340;8.288;2022-11-18T06:35:53;2.40;;;2.20;;
9160;SDS011;4615;51.340;8.288;2022-11-18T06:38:22;3.15;;;2.28;;
9160;SDS011;4615;51.340;8.288;2022-11-18T06:40:48;2.28;;;1.85;;
9160;SDS011;4615;51.340;8.288;2022-11-18T06:43:15;1.87;;;1.73;;
9160;SDS011;4615;51.340;8.288;2022-11-18T06:45:58;2.05;;;1.85;;
9160;SDS011;4615;51.340;8.288;2022-11-18T06:48:44;3.03;;;2.00;;
9160;SDS011;4615;51.340;8.288;2022-11-18T06:51:10;4.43;;;3.10;;
9160;SDS011;4615;51.340;8.288;2022-11-18T06:53:36;5.47;;;3.77;;
9160;SDS011;4615;51.340;8.288;2022-11-18T06:56:03;3.67;;;3.38;;
9160;SDS011;4615;51.340;8.288;2022-11-18T06:58:30;3.20;;;2.90;;
9160;SDS011;4615;51.340;8.288;2022-11-18T07:00:56;4.43;;;3.20;;
9160;SDS011;4615;51.340;8.288;2022-11-18T07:03:23;3.60;;;2.15;;
9160;SDS011;4615;51.340;8.288;2022-11-18T07:05:50;3.78;;;3.47;;
9160;SDS011;4615;51.340;8.288;2022-11-18T07:08:17;5.22;;;4.30;;
9160;SDS011;4615;51.340;8.288;2022-11-18T07:10:50;2.30;;;2.10;;
9160;SDS011;4615;51.340;8.288;2022-11-18T07:13:16;2.50;;;2.30;;
9160;SDS011;4615;51.340;8.288;2022-11-18T07:15:43;6.50;;;6.00;;
9160;SDS011;4615;51.340;8.288;2022-11-18T07:18:09;8.00;;;7.20;;
9160;SDS011;4615;51.340;8.288;2022-11-18T07:20:35;9.40;;;8.48;;
9160;SDS011;4615;51.340;8.288;2022-11-18T07:23:03;10.52;;;9.43;;
9160;SDS011;4615;51.340;8.288;2022-11-18T07:25:29;9.63;;;8.70;;
9160;SDS011;4615;51.340;8.288;2022-11-18T07:27:57;9.43;;;8.50;;
9160;SDS011;4615;51.340;8.288;2022-11-18T07:30:23;15.85;;;13.85;;
9160;SDS011;4615;51.340;8.288;2022-11-18T07:32:49;13.98;;;10.88;;
9160;SDS011;4615;51.340;8.288;2022-11-18T07:35:16;11.43;;;10.25;;
9160;SDS011;4615;51.340;8.288;2022-11-18T07:37:43;10.13;;;9.13;;
9160;SDS011;4615;51.340;8.288;2022-11-18T07:40:10;10.98;;;9.93;;
9160;SDS011;4615;51.340;8.288;2022-11-18T07:42:37;7.50;;;6.82;;
9160;SDS011;4615;51.340;8.288;2022-11-18T07:45:08;7.03;;;6.32;;
9160;SDS011;4615;51.340;8.288;2022-11-18T07:47:34;8.93;;;8.13;;
9160;SDS011;4615;51.340;8.288;2022-11-18T07:50:01;8.10;;;7.30;;
9160;SDS011;4615;51.340;8.288;2022-11-18T07:52:27;9.23;;;8.20;;
9160;SDS011;4615;51.340;8.288;2022-11-18T07:54:53;10.07;;;9.07;;
9160;SDS011;4615;51.340;8.288;2022-11-18T07:57:21;9.80;;;8.80;;
9160;SDS011;4615;51.340;8.288;2022-11-18T07:59:48;6.50;;;5.90;;
9160;SDS011;4615;51.340;8.288;2022-11-18T08:02:14;6.43;;;5.78;;
9160;SDS011;4615;51.340;8.288;2022-11-18T08:04:40;6.70;;;6.10;;
9160;SDS011;4615;51.340;8.288;2022-11-18T08:07:07;6.88;;;6.20;;
9160;SDS011;4615;51.340;8.288;2022-11-18T08:09:34;6.85;;;6.15;;
9160;SDS011;4615;51.340;8.288;2022-11-18T08:12:00;7.68;;;6.90;;
9160;SDS011;4615;51.340;8.288;2022-11-18T08:14:28;10.50;;;8.65;;
9160;SDS011;4615;51.340;8.288;2022-11-18T08:16:54;10.05;;;9.05;;
9160;SDS011;4615;51.340;8.288;2022-11-18T08:19:21;9.60;;;8.70;;
9160;SDS011;4615;51.340;8.288;2022-11-18T08:21:47;8.68;;;7.03;;
9160;SDS011;4615;51.340;8.288;2022-11-18T08:24:14;6.22;;;5.63;;
9160;SDS011;4615;51.340;8.288;2022-11-18T08:26:40;6.03;;;5.00;;
9160;SDS011;4615;51.340;8.288;2022-11-18T08:29:06;5.65;;;5.00;;
9160;SDS011;4615;51.340;8.288;2022-11-18T08:31:34;5.45;;;4.90;;
9160;SDS011;4615;51.340;8.288;2022-11-18T08:34:01;5.50;;;4.93;;
9160;SDS011;4615;51.340;8.288;2022-11-18T08:36:28;5.47;;;4.97;;
9160;SDS011;4615;51.340;8.288;2022-11-18T08:38:55;6.28;;;5.68;;
9160;SDS011;4615;51.340;8.288;2022-11-18T08:41:24;5.78;;;5.18;;
9160;SDS011;4615;51.340;8.288;2022-11-18T08:43:53;5.75;;;5.25;;
9160;SDS011;4615;51.340;8.288;2022-11-18T08:46:19;5.53;;;5.00;;
9160;SDS011;4615;51.340;8.288;2022-11-18T08:48:48;5.88;;;5.20;;
9160;SDS011;4615;51.340;8.288;2022-11-18T08:51:14;5.60;;;5.10;;
9160;SDS011;4615;51.340;8.288;2022-11-18T08:53:41;7.55;;;6.30;;
9160;SDS011;4615;51.340;8.288;2022-11-18T08:56:10;6.53;;;5.35;;
9160;SDS011;4615;51.340;8.288;2022-11-18T08:58:37;5.07;;;4.43;;
9160;SDS011;4615;51.340;8.288;2022-11-18T09:01:04;4.53;;;3.78;;
9160;SDS011;4615;51.340;8.288;2022-11-18T09:03:31;3.77;;;3.43;;
9160;SDS011;4615;51.340;8.288;2022-11-18T09:06:05;4.95;;;3.92;;
9160;SDS011;4615;51.340;8.288;2022-11-18T09:08:31;3.53;;;3.20;;
9160;SDS011;4615;51.340;8.288;2022-11-18T09:10:58;5.35;;;4.38;;
9160;SDS011;4615;51.340;8.288;2022-11-18T09:13:24;7.70;;;6.40;;
9160;SDS011;4615;51.340;8.288;2022-11-18T09:15:50;11.10;;;10.00;;
9160;SDS011;4615;51.340;8.288;2022-11-18T09:18:17;11.23;;;9.90;;
9160;SDS011;4615;51.340;8.288;2022-11-18T09:20:52;10.50;;;9.50;;
9160;SDS011;4615;51.340;8.288;2022-11-18T09:23:19;10.65;;;9.55;;
9160;SDS011;4615;51.340;8.288;2022-11-18T09:25:46;10.10;;;9.20;;
9160;SDS011;4615;51.340;8.288;2022-11-18T09:28:12;9.43;;;8.63;;
9160;SDS011;4615;51.340;8.288;2022-11-18T09:30:39;9.75;;;8.95;;
9160;SDS011;4615;51.340;8.288;2022-11-18T09:33:05;10.57;;;9.50;;
9160;SDS011;4615;51.340;8.288;2022-11-18T09:35:32;9.48;;;8.00;;
9160;SDS011;4615;51.340;8.288;2022-11-18T09:37:58;7.97;;;7.20;;
9160;SDS011;4615;51.340;8.288;2022-11-18T09:40:26;7.20;;;6.50;;
9160;SDS011;4615;51.340;8.288;2022-11-18T09:42:55;8.13;;;7.43;;
9160;SDS011;4615;51.340;8.288;2022-11-18T09:45:23;8.73;;;7.93;;
9160;SDS011;4615;51.340;8.288;2022-11-18T09:47:54;8.20;;;7.50;;
9160;SDS011;4615;51.340;8.288;2022-11-18T09:50:21;8.32;;;7.53;;
9160;SDS011;4615;51.340;8.288;2022-11-18T09:52:49;9.52;;;8.63;;
9160;SDS011;4615;51.340;8.288;2022-11-18T09:55:19;8.02;;;7.22;;
9160;SDS011;4615;51.340;8.288;2022-11-18T09:57:47;9.90;;;9.00;;
9160;SDS011;4615;51.340;8.288;2022-11-18T10:00:15;9.80;;;8.90;;
9160;SDS011;4615;51.340;8.288;2022-11-18T10:02:45;9.13;;;8.23;;
9160;SDS011;4615;51.340;8.288;2022-11-18T10:05:14;8.63;;;7.82;;
9160;SDS011;4615;51.340;8.288;2022-11-18T10:07:43;9.75;;;8.88;;
9160;SDS011;4615;51.340;8.288;2022-11-18T10:10:14;10.13;;;9.17;;
9160;SDS011;4615;51.340;8.288;2022-11-18T10:12:44;10.32;;;9.32;;
9160;SDS011;4615;51.340;8.288;2022-11-18T10:15:17;10.23;;;9.23;;
9160;SDS011;4615;51.340;8.288;2022-11-18T10:17:47;9.02;;;8.23;;
9160;SDS011;4615;51.340;8.288;2022-11-18T10:20:24;9.48;;;8.68;;
9160;SDS011;4615;51.340;8.288;2022-11-18T10:22:52;10.07;;;9.07;;
9160;SDS011;4615;51.340;8.288;2022-11-18T10:25:19;10.57;;;9.57;;
9160;SDS011;4615;51.340;8.288;2022-11-18T10:27:46;10.00;;;9.00;;
9160;SDS011;4615;51.340;8.288;2022-11-18T10:30:13;9.98;;;8.75;;
9160;SDS011;4615;51.340;8.288;2022-11-18T10:32:58;8.63;;;7.80;;
9160;SDS011;4615;51.340;8.288;2022-11-18T10:35:26;9.25;;;7.80;;
9160;SDS011;4615;51.340;8.288;2022-11-18T10:38:03;7.65;;;6.95;;
9160;SDS011;4615;51.340;8.288;2022-11-18T10:40:30;9.25;;;8.35;;
9160;SDS011;4615;51.340;8.288;2022-11-18T10:42:56;10.13;;;8.60;;
9160;SDS011;4615;51.340;8.288;2022-11-18T10:45:24;9.87;;;8.87;;
9160;SDS011;4615;51.340;8.288;2022-11-18T10:47:55;8.93;;;7.50;;
9160;SDS011;4615;51.340;8.288;2022-11-18T10:50:29;9.57;;;8.30;;
9160;SDS011;4615;51.340;8.288;2022-11-18T10:52:56;8.38;;;7.20;;
9160;SDS011;4615;51.340;8.288;2022-11-18T10:55:22;8.80;;;7.80;;
9160;SDS011;4615;51.340;8.288;2022-11-18T10:57:50;9.60;;;8.32;;
9160;SDS011;4615;51.340;8.288;2022-11-18T11:00:39;9.20;;;7.68;;
9160;SDS011;4615;51.340;8.288;2022-11-18T11:08:52;9.13;;;8.00;;
9160;SDS011;4615;51.340;8.288;2022-11-18T11:11:21;7.75;;;6.80;;
9160;SDS011;4615;51.340;8.288;2022-11-18T11:13:50;8.40;;;7.32;;
9160;SDS011;4615;51.340;8.288;2022-11-18T11:16:17;7.63;;;6.80;;
9160;SDS011;4615;51.340;8.288;2022-11-18T11:18:51;7.72;;;6.57;;
9160;SDS011;4615;51.340;8.288;2022-11-18T11:21:19;7.70;;;6.78;;
9160;SDS011;4615;51.340;8.288;2022-11-18T11:23:46;9.98;;;7.60;;
9160;SDS011;4615;51.340;8.288;2022-11-18T11:26:15;8.10;;;6.93;;
9160;SDS011;4615;51.340;8.288;2022-11-18T11:28:43;7.07;;;6.40;;
9160;SDS011;4615;51.340;8.288;2022-11-18T11:31:11;6.90;;;5.95;;
9160;SDS011;4615;51.340;8.288;2022-11-18T11:33:42;5.93;;;5.30;;
9160;SDS011;4615;51.340;8.288;2022-11-18T11:36:15;5.75;;;5.15;;
9160;SDS011;4615;51.340;8.288;2022-11-18T11:38:49;6.25;;;5.65;;
9160;SDS011;4615;51.340;8.288;2022-11-18T11:41:22;5.63;;;5.05;;
9160;SDS011;4615;51.340;8.288;2022-11-18T11:44:01;5.68;;;5.05;;
9160;SDS011;4615;51.340;8.288;2022-11-18T11:46:34;5.20;;;4.72;;
9160;SDS011;4615;51.340;8.288;2022-11-18T11:49:05;6.50;;;5.70;;
9160;SDS011;4615;51.340;8.288;2022-11-18T11:51:36;4.60;;;4.10;;
9160;SDS011;4615;51.340;8.288;2022-11-18T11:56:52;4.32;;;3.92;;
9160;SDS011;4615;51.340;8.288;2022-11-18T11:59:27;4.03;;;3.67;;
9160;SDS011;4615;51.340;8.288;2022-11-18T12:01:56;4.75;;;4.28;;
9160;SDS011;4615;51.340;8.288;2022-11-18T12:04:29;7.20;;;5.67;;
9160;SDS011;4615;51.340;8.288;2022-11-18T12:06:58;10.13;;;9.00;;
9160;SDS011;4615;51.340;8.288;2022-11-18T12:09:26;9.02;;;8.10;;
9160;SDS011;4615;51.340;8.288;2022-11-18T12:11:57;7.25;;;6.40;;
9160;SDS011;4615;51.340;8.288;2022-11-18T12:14:27;7.40;;;6.30;;
9160;SDS011;4615;51.340;8.288;2022-11-18T12:16:56;8.77;;;7.33;;
9160;SDS011;4615;51.340;8.288;2022-11-18T12:19:25;8.60;;;7.70;;
9160;SDS011;4615;51.340;8.288;2022-11-18T12:21:53;8.88;;;7.72;;
9160;SDS011;4615;51.340;8.288;2022-11-18T12:24:23;9.60;;;8.70;;
9160;SDS011;4615;51.340;8.288;2022-11-18T12:26:55;9.55;;;8.55;;
9160;SDS011;4615;51.340;8.288;2022-11-18T12:29:23;8.90;;;8.10;;
9160;SDS011;4615;51.340;8.288;2022-11-18T12:31:50;8.75;;;7.82;;
9160;SDS011;4615;51.340;8.288;2022-11-18T12:34:28;9.10;;;8.20;;
9160;SDS011;4615;51.340;8.288;2022-11-18T12:36:56;9.70;;;8.73;;
9160;SDS011;4615;51.340;8.288;2022-11-18T12:42:39;8.00;;;7.30;;
9160;SDS011;4615;51.340;8.288;2022-11-18T12:45:46;9.07;;;8.10;;
9160;SDS011;4615;51.340;8.288;2022-11-18T12:48:25;9.88;;;8.88;;
9160;SDS011;4615;51.340;8.288;2022-11-18T12:50:52;11.40;;;10.20;;
9160;SDS011;4615;51.340;8.288;2022-11-18T12:53:27;9.88;;;8.88;;
9160;SDS011;4615;51.340;8.288;2022-11-18T12:55:55;11.27;;;10.10;;
9160;SDS011;4615;51.340;8.288;2022-11-18T12:58:23;5.97;;;5.35;;
9160;SDS011;4615;51.340;8.288;2022-11-18T13:00:51;3.97;;;2.78;;
9160;SDS011;4615;51.340;8.288;2022-11-18T13:03:30;3.72;;;3.25;;
9160;SDS011;4615;51.340;8.288;2022-11-18T13:06:11;5.85;;;3.80;;
9160;SDS011;4615;51.340;8.288;2022-11-18T13:08:38;4.50;;;3.13;;
9160;SDS011;4615;51.340;8.288;2022-11-18T13:11:09;5.20;;;4.32;;
9160;SDS011;4615;51.340;8.288;2022-11-18T13:13:57;4.45;;;3.63;;
9160;SDS011;4615;51.340;8.288;2022-11-18T13:16:43;4.28;;;3.53;;
9160;SDS011;4615;51.340;8.288;2022-11-18T13:19:27;4.00;;;3.67;;
9160;SDS011;4615;51.340;8.288;2022-11-18T13:21:53;3.90;;;3.50;;
9160;SDS011;4615;51.340;8.288;2022-11-18T13:24:41;3.72;;;3.30;;
9160;SDS011;4615;51.340;8.288;2022-11-18T13:27:08;3.67;;;3.00;;
9160;SDS011;4615;51.340;8.288;2022-11-18T13:29:44;4.70;;;3.15;;
9160;SDS011;4615;51.340;8.288;2022-11-18T13:32:18;3.50;;;3.20;;
9160;SDS011;4615;51.340;8.288;2022-11-18T13:34:46;3.40;;;3.08;;
9160;SDS011;4615;51.340;8.288;2022-11-18T13:37:14;2.90;;;2.58;;
9160;SDS011;4615;51.340;8.288;2022-11-18T13:39:42;3.30;;;2.50;;
9160;SDS011;4615;51.340;8.288;2022-11-18T13:42:13;3.10;;;2.80;;
9160;SDS011;4615;51.340;8.288;2022-11-18T13:44:43;4.38;;;3.70;;
9160;SDS011;4615;51.340;8.288;2022-11-18T13:47:10;3.50;;;3.20;;
9160;SDS011;4615;51.340;8.288;2022-11-18T13:49:42;4.47;;;2.97;;
9160;SDS011;4615;51.340;8.288;2022-11-18T13:52:11;4.07;;;3.63;;
9160;SDS011;4615;51.340;8.288;2022-11-18T13:54:39;4.53;;;3.83;;
9160;SDS011;4615;51.340;8.288;2022-11-18T13:57:05;5.80;;;4.43;;
9160;SDS011;4615;51.340;8.288;2022-11-18T13:59:32;6.35;;;4.85;;
9160;SDS011;4615;51.340;8.288;2022-11-18T14:01:59;4.72;;;4.22;;
9160;SDS011;4615;51.340;8.288;2022-11-18T14:04:26;6.57;;;5.10;;
9160;SDS011;4615;51.340;8.288;2022-11-18T14:06:55;5.50;;;4.82;;
9160;SDS011;4615;51.340;8.288;2022-11-18T14:09:50;6.47;;;5.88;;
9160;SDS011;4615;51.340;8.288;2022-11-18T14:12:20;5.50;;;4.22;;
9160;SDS011;4615;51.340;8.288;2022-11-18T14:14:47;4.35;;;3.92;;
9160;SDS011;4615;51.340;8.288;2022-11-18T14:17:14;4.22;;;3.80;;
9160;SDS011;4615;51.340;8.288;2022-11-18T14:19:41;4.10;;;3.80;;
9160;SDS011;4615;51.340;8.288;2022-11-18T14:22:12;4.60;;;4.20;;
9160;SDS011;4615;51.340;8.288;2022-11-18T14:24:39;5.00;;;4.10;;
9160;SDS011;4615;51.340;8.288;2022-11-18T14:29:50;4.90;;;4.40;;
9160;SDS011;4615;51.340;8.288;2022-11-18T14:32:17;4.90;;;4.40;;
9160;SDS011;4615;51.340;8.288;2022-11-18T14:34:43;6.30;;;5.57;;
9160;SDS011;4615;51.340;8.288;2022-11-18T14:37:11;7.20;;;6.60;;
9160;SDS011;4615;51.340;8.288;2022-11-18T14:39:39;5.65;;;5.15;;
9160;SDS011;4615;51.340;8.288;2022-11-18T14:42:08;5.38;;;4.88;;
9160;SDS011;4615;51.340;8.288;2022-11-18T14:44:35;5.97;;;5.47;;
9160;SDS011;4615;51.340;8.288;2022-11-18T14:47:03;6.53;;;5.93;;
9160;SDS011;4615;51.340;8.288;2022-11-18T14:49:30;7.13;;;6.43;;
9160;SDS011;4615;51.340;8.288;2022-11-18T14:51:57;7.85;;;7.15;;
9160;SDS011;4615;51.340;8.288;2022-11-18T14:54:27;6.80;;;6.20;;
9160;SDS011;4615;51.340;8.288;2022-11-18T14:56:54;8.45;;;7.30;;
9160;SDS011;4615;51.340;8.288;2022-11-18T14:59:22;7.68;;;6.97;;
9160;SDS011;4615;51.340;8.288;2022-11-18T15:01:48;6.80;;;6.13;;
9160;SDS011;4615;51.340;8.288;2022-11-18T15:04:14;6.20;;;5.70;;
9160;SDS011;4615;51.340;8.288;2022-11-18T15:06:41;9.23;;;7.80;;
9160;SDS011;4615;51.340;8.288;2022-11-18T15:09:08;9.18;;;8.20;;
9160;SDS011;4615;51.340;8.288;2022-11-18T15:11:36;8.88;;;7.97;;
9160;SDS011;4615;51.340;8.288;2022-11-18T15:14:02;8.50;;;7.70;;
9160;SDS011;4615;51.340;8.288;2022-11-18T15:16:29;7.60;;;6.90;;
9160;SDS011;4615;51.340;8.288;2022-11-18T15:18:57;7.88;;;6.90;;
9160;SDS011;4615;51.340;8.288;2022-11-18T15:21:24;8.45;;;7.65;;
9160;SDS011;4615;51.340;8.288;2022-11-18T15:23:51;9.32;;;8.45;;
9160;SDS011;4615;51.340;8.288;2022-11-18T15:26:18;9.38;;;8.38;;
9160;SDS011;4615;51.340;8.288;2022-11-18T15:28:47;9.13;;;8.27;;
9160;SDS011;4615;51.340;8.288;2022-11-18T15:31:14;10.77;;;9.77;;
9160;SDS011;4615;51.340;8.288;2022-11-18T15:33:41;11.10;;;10.10;;
9160;SDS011;4615;51.340;8.288;2022-11-18T15:36:09;10.43;;;9.40;;
9160;SDS011;4615;51.340;8.288;2022-11-18T15:38:35;8.75;;;7.95;;
9160;SDS011;4615;51.340;8.288;2022-11-18T15:41:02;8.20;;;7.40;;
9160;SDS011;4615;51.340;8.288;2022-11-18T15:43:28;6.88;;;6.30;;